Time;durP1;ratioP1;P1;durP2;ratioP2;P2;SDS_P1;SDS_P2;PMS_P1;PMS_P2;Temp;Humidity;BMP_temperature;BMP_pressure;BME280_temperature;BME280_humidity;BME280_pressure;Samples;Min_cycle;Max_cycle;Signal;HPM_P1;HPM_P2
2021/05/27 00:02:17;;;;;;;8.65;4.20;;;;;;;14.79;74.64;100459.88;1677840;83;21125;-75
2021/05/27 00:04:45;;;;;;;5.95;4.08;;;;;;;14.79;74.59;100461.70;1674151;83;20976;-75
2021/05/27 00:07:11;;;;;;;6.62;4.10;;;;;;;14.77;74.57;100459.19;1672040;84;20991;-75
2021/05/27 00:09:38;;;;;;;8.58;4.20;;;;;;;14.75;74.58;100454.98;1678913;83;21083;-74
2021/05/27 00:12:06;;;;;;;6.08;4.50;;;;;;;14.71;74.58;100451.78;1693769;84;21479;-74
2021/05/27 00:14:33;;;;;;;6.87;4.15;;;;;;;14.67;74.63;100450.41;1692398;83;21106;-74
2021/05/27 00:16:59;;;;;;;7.20;3.87;;;;;;;14.62;74.67;100444.69;1677421;83;21038;-74
2021/05/27 00:19:26;;;;;;;7.75;4.37;;;;;;;14.58;74.71;100447.30;1676479;84;20982;-74
2021/05/27 00:21:53;;;;;;;4.60;3.65;;;;;;;14.55;74.68;100444.91;1692507;83;20999;-74
2021/05/27 00:24:19;;;;;;;5.97;4.08;;;;;;;14.53;74.70;100446.39;1682634;83;21789;-74
2021/05/27 00:26:45;;;;;;;4.92;3.90;;;;;;;14.50;74.59;100445.36;1674180;83;20991;-75
2021/05/27 00:29:12;;;;;;;6.10;3.83;;;;;;;14.46;74.53;100445.78;1676398;83;21117;-74
2021/05/27 00:31:39;;;;;;;5.92;4.10;;;;;;;14.44;74.51;100448.56;1683846;84;21103;-74
2021/05/27 00:34:06;;;;;;;6.37;4.00;;;;;;;14.40;74.54;100456.98;1688362;83;21533;-74
2021/05/27 00:36:33;;;;;;;6.30;3.90;;;;;;;14.36;74.54;100460.40;1706652;83;21738;-75
2021/05/27 00:39:00;;;;;;;5.83;3.80;;;;;;;14.32;74.52;100459.86;1705209;83;21106;-75
2021/05/27 00:41:26;;;;;;;7.62;3.90;;;;;;;14.30;74.54;100460.50;1676825;83;21635;-74
2021/05/27 00:43:53;;;;;;;6.08;3.85;;;;;;;14.28;74.60;100465.13;1676396;83;21027;-75
2021/05/27 00:46:19;;;;;;;6.03;4.00;;;;;;;14.25;74.63;100464.06;1680144;83;21051;-74
2021/05/27 00:51:29;;;;;;;4.83;3.55;;;;;;;14.20;74.58;100465.00;1676954;84;21131;-75
2021/05/27 00:53:56;;;;;;;5.53;3.50;;;;;;;14.16;74.65;100471.56;1676896;83;20990;-76
2021/05/27 00:56:23;;;;;;;5.28;3.52;;;;;;;14.11;74.73;100469.00;1680607;83;21050;-75
2021/05/27 00:58:50;;;;;;;6.35;3.42;;;;;;;14.07;74.80;100471.57;1677012;83;21030;-75
2021/05/27 01:01:16;;;;;;;5.65;3.87;;;;;;;14.02;74.90;100470.69;1647202;85;21833;-75
2021/05/27 01:03:43;;;;;;;5.75;3.35;;;;;;;13.98;75.04;100468.78;1646983;85;21007;-75
2021/05/27 01:06:09;;;;;;;4.30;3.47;;;;;;;13.93;75.10;100464.40;1650301;85;21545;-74
2021/05/27 01:08:37;;;;;;;5.22;3.50;;;;;;;13.91;75.15;100466.36;1649311;85;21628;-75
2021/05/27 01:11:05;;;;;;;5.78;3.30;;;;;;;13.88;75.24;100467.95;1646399;85;20996;-74
2021/05/27 01:13:32;;;;;;;7.40;3.33;;;;;;;13.85;75.31;100462.09;1644252;87;21760;-74
2021/05/27 01:15:59;;;;;;;4.90;3.22;;;;;;;13.81;75.40;100465.53;1636423;85;21538;-74
2021/05/27 01:18:27;;;;;;;4.40;3.55;;;;;;;13.79;75.47;100470.61;1648664;85;21499;-74
2021/05/27 01:20:56;;;;;;;5.90;3.50;;;;;;;13.77;75.57;100464.61;1650956;87;21007;-74
2021/05/27 01:23:26;;;;;;;8.53;3.45;;;;;;;13.75;75.71;100462.94;1648869;85;21541;-74
2021/05/27 01:25:54;;;;;;;5.58;3.12;;;;;;;13.73;75.81;100458.75;1646936;85;22310;-74
2021/05/27 01:28:28;;;;;;;10.00;3.87;;;;;;;13.71;75.96;100456.24;1630793;86;20997;-74
2021/05/27 01:30:57;;;;;;;3.60;2.60;;;;;;;13.69;76.07;100454.69;1664819;84;21664;-75
2021/05/27 01:33:26;;;;;;;5.58;3.42;;;;;;;13.69;76.26;100464.81;1678063;83;21129;-75
2021/05/27 01:35:54;;;;;;;4.95;3.17;;;;;;;13.70;76.42;100459.02;1667921;83;21032;-74
2021/05/27 01:38:24;;;;;;;9.88;3.33;;;;;;;13.72;76.49;100461.06;1691579;83;21799;-75
2021/05/27 01:40:53;;;;;;;5.12;3.60;;;;;;;13.72;76.58;100451.77;1694946;83;21101;-74
2021/05/27 01:43:21;;;;;;;4.33;3.52;;;;;;;13.73;76.64;100456.09;1714406;83;21031;-74
2021/05/27 01:45:48;;;;;;;4.30;3.42;;;;;;;13.74;76.72;100454.63;1690744;83;21525;-74
2021/05/27 01:48:15;;;;;;;4.10;3.10;;;;;;;13.74;76.78;100453.79;1691029;83;21027;-74
2021/05/27 01:50:45;;;;;;;5.55;3.33;;;;;;;13.72;76.84;100448.62;1691218;83;21043;-76
2021/05/27 01:53:11;;;;;;;3.67;3.20;;;;;;;13.73;76.92;100447.64;1682489;82;21291;-76
2021/05/27 01:55:47;;;;;;;5.60;3.12;;;;;;;13.73;76.98;100447.64;1685634;83;21043;-75
2021/05/27 01:58:13;;;;;;;4.15;3.08;;;;;;;13.73;76.96;100444.98;1683654;83;21003;-74
2021/05/27 02:00:40;;;;;;;5.62;3.15;;;;;;;13.73;77.03;100442.83;1675717;83;21022;-74
2021/05/27 02:03:07;;;;;;;4.67;2.95;;;;;;;13.72;77.03;100445.97;1647669;86;22295;-74
2021/05/27 02:05:35;;;;;;;7.58;3.47;;;;;;;13.73;77.01;100448.97;1682570;83;20992;-74
2021/05/27 02:08:04;;;;;;;6.33;3.08;;;;;;;13.73;77.03;100451.63;1651032;86;20985;-74
2021/05/27 02:10:41;;;;;;;5.78;3.17;;;;;;;13.71;77.06;100437.66;1695851;83;21098;-74
2021/05/27 02:13:09;;;;;;;6.30;3.20;;;;;;;13.71;77.14;100446.95;1696760;83;21031;-74
2021/05/27 02:15:37;;;;;;;4.45;2.70;;;;;;;13.72;77.17;100438.50;1677284;83;21771;-74
2021/05/27 02:18:04;;;;;;;3.58;3.00;;;;;;;13.71;77.24;100443.46;1691182;83;21496;-74
2021/05/27 02:20:30;;;;;;;6.53;3.30;;;;;;;13.70;77.31;100443.95;1688211;84;21046;-74
2021/05/27 02:22:57;;;;;;;4.65;2.87;;;;;;;13.72;77.41;100439.83;1680341;83;21578;-74
2021/05/27 02:25:42;;;;;;;4.97;3.05;;;;;;;13.73;77.48;100446.31;1693605;83;20959;-74
2021/05/27 02:28:10;;;;;;;3.83;2.83;;;;;;;13.77;77.58;100443.38;1693836;83;21792;-74
2021/05/27 02:30:37;;;;;;;3.90;3.15;;;;;;;13.80;77.69;100439.97;1660838;85;21072;-74
2021/05/27 02:33:06;;;;;;;4.67;3.20;;;;;;;13.83;77.75;100438.84;1693907;82;21071;-76
2021/05/27 02:35:35;;;;;;;6.15;3.60;;;;;;;13.88;77.81;100436.58;1692565;82;21579;-74
2021/05/27 02:38:02;;;;;;;5.75;4.08;;;;;;;13.92;77.85;100434.01;1704649;82;20977;-74
2021/05/27 02:40:29;;;;;;;7.33;4.90;;;;;;;13.97;77.94;100439.22;1697541;82;22258;-74
2021/05/27 02:42:56;;;;;;;6.53;4.60;;;;;;;14.02;78.04;100441.47;1701595;82;21018;-74
2021/05/27 02:45:23;;;;;;;6.75;4.35;;;;;;;14.06;78.12;100436.20;1704173;82;20955;-74
2021/05/27 02:47:50;;;;;;;7.03;4.30;;;;;;;14.12;78.13;100437.47;1699860;82;22006;-75
2021/05/27 02:50:19;;;;;;;5.28;3.80;;;;;;;14.16;78.17;100428.22;1699443;82;21616;-74
2021/05/27 02:52:47;;;;;;;4.35;3.58;;;;;;;14.23;78.13;100433.31;1696574;83;21810;-74
2021/05/27 02:55:15;;;;;;;6.42;3.60;;;;;;;14.29;78.08;100430.09;1687449;82;21019;-75
2021/05/27 02:57:41;;;;;;;6.00;3.30;;;;;;;14.35;78.05;100429.98;1697955;82;21477;-74
2021/05/27 03:00:12;;;;;;;6.83;3.52;;;;;;;14.40;77.97;100425.93;1701960;84;21058;-75
2021/05/27 03:02:41;;;;;;;4.87;3.60;;;;;;;14.46;77.97;100431.17;1699583;82;21158;-74
2021/05/27 03:05:09;;;;;;;5.75;3.60;;;;;;;14.51;77.90;100428.92;1700531;82;21732;-74
2021/05/27 03:07:39;;;;;;;4.20;3.33;;;;;;;14.55;77.83;100430.30;1702382;83;21091;-74
2021/05/27 03:10:07;;;;;;;5.30;3.67;;;;;;;14.59;77.75;100437.84;1702767;82;21451;-74
2021/05/27 03:12:37;;;;;;;4.65;3.37;;;;;;;14.64;77.67;100436.06;1702998;82;21399;-75
2021/05/27 03:15:07;;;;;;;5.12;3.50;;;;;;;14.70;77.63;100439.97;1687818;82;21504;-74
2021/05/27 03:17:34;;;;;;;5.72;3.80;;;;;;;14.74;77.66;100442.67;1679947;82;21499;-74
2021/05/27 03:20:05;;;;;;;4.15;3.50;;;;;;;14.77;77.68;100441.91;1689183;84;20987;-75
2021/05/27 03:22:32;;;;;;;3.92;3.30;;;;;;;14.80;77.67;100442.93;1677897;82;20983;-75
2021/05/27 03:25:00;;;;;;;4.72;3.70;;;;;;;14.84;77.64;100442.97;1698593;82;21614;-74
2021/05/27 03:27:26;;;;;;;6.37;3.50;;;;;;;14.90;77.54;100440.22;1704112;82;21094;-75
2021/05/27 03:29:53;;;;;;;9.20;3.70;;;;;;;14.96;77.51;100437.45;1694516;84;21775;-75
2021/05/27 03:32:21;;;;;;;4.03;3.58;;;;;;;15.03;77.39;100432.72;1712218;82;21475;-75
2021/05/27 03:34:48;;;;;;;5.62;4.17;;;;;;;15.09;77.29;100431.30;1731255;82;21563;-74
2021/05/27 03:37:16;;;;;;;4.40;3.67;;;;;;;15.16;77.20;100435.88;1690100;83;21022;-75
2021/05/27 03:42:32;;;;;;;6.87;3.77;;;;;;;15.34;77.27;100436.37;1711445;83;21788;-72
2021/05/27 03:44:58;;;;;;;4.30;3.50;;;;;;;15.41;77.30;100435.62;1685329;83;21550;-72
2021/05/27 03:47:27;;;;;;;5.35;3.67;;;;;;;15.48;77.39;100438.52;1702848;83;21098;-71
2021/05/27 03:49:56;;;;;;;5.03;3.60;;;;;;;15.58;77.38;100441.11;1656897;84;20997;-72
2021/05/27 03:52:23;;;;;;;4.75;3.95;;;;;;;15.68;77.46;100441.90;1659906;83;21499;-72
2021/05/27 03:54:50;;;;;;;4.33;3.70;;;;;;;15.77;77.57;100422.83;1704305;83;22124;-72
2021/05/27 03:57:17;;;;;;;6.53;3.90;;;;;;;15.86;77.63;100426.73;1699382;83;21070;-73
2021/05/27 04:02:30;;;;;;;5.58;3.87;;;;;;;16.08;77.74;100431.22;1697999;83;21078;-72
2021/05/27 04:07:43;;;;;;;4.37;3.92;;;;;;;16.27;77.50;100431.02;1674948;83;21833;-75
2021/05/27 04:10:11;;;;;;;4.62;4.10;;;;;;;16.37;77.24;100423.75;1693515;83;21090;-74
2021/05/27 04:12:45;;;;;;;5.03;4.40;;;;;;;16.45;77.08;100424.30;1695902;83;21117;-73
2021/05/27 04:15:25;;;;;;;9.58;6.10;;;;;;;16.51;76.94;100428.51;1696966;83;21189;-77
2021/05/27 04:18:01;;;;;;;8.33;5.80;;;;;;;16.58;76.88;100428.19;1655153;85;21358;-76
2021/05/27 04:20:37;;;;;;;7.45;6.25;;;;;;;16.64;76.75;100425.89;1683350;83;21804;-74
2021/05/27 04:23:08;;;;;;;7.75;5.85;;;;;;;16.67;76.60;100421.56;1672736;82;20983;-76
2021/05/27 04:25:35;;;;;;;6.22;5.60;;;;;;;16.71;76.42;100417.13;1708113;82;21504;-74
2021/05/27 04:28:02;;;;;;;8.70;5.92;;;;;;;16.75;76.19;100421.63;1692128;82;21009;-78
2021/05/27 04:30:29;;;;;;;6.22;5.25;;;;;;;16.80;76.01;100417.50;1694202;82;21064;-76
2021/05/27 04:33:03;;;;;;;7.92;5.08;;;;;;;16.85;75.87;100411.17;1684220;83;21694;-74
2021/05/27 04:35:40;;;;;;;5.95;5.28;;;;;;;16.94;75.67;100419.20;1691812;83;21079;-74
2021/05/27 04:38:16;;;;;;;6.80;5.47;;;;;;;17.00;75.51;100421.23;1670889;83;21034;-75
2021/05/27 04:40:48;;;;;;;5.50;4.60;;;;;;;17.05;75.15;100418.41;1684473;83;21120;-71
2021/05/27 04:43:18;;;;;;;7.20;5.20;;;;;;;17.12;74.87;100419.43;1695840;83;21059;-73
2021/05/27 04:45:45;;;;;;;8.48;4.87;;;;;;;17.21;74.67;100416.28;1694733;83;21790;-75
2021/05/27 04:48:13;;;;;;;8.30;5.03;;;;;;;17.31;74.45;100418.30;1695099;83;21106;-74
2021/05/27 04:50:41;;;;;;;6.87;5.47;;;;;;;17.41;74.27;100416.31;1676144;83;21054;-74
2021/05/27 04:53:07;;;;;;;10.18;6.17;;;;;;;17.50;73.94;100413.66;1661684;84;21110;-74
2021/05/27 04:55:34;;;;;;;10.75;6.72;;;;;;;17.59;73.64;100413.50;1681680;83;21429;-73
2021/05/27 04:58:01;;;;;;;12.95;7.33;;;;;;;17.68;73.03;100418.34;1669149;83;21787;-74
2021/05/27 05:00:28;;;;;;;15.13;7.70;;;;;;;17.78;72.34;100415.05;1688691;83;21616;-73
2021/05/27 05:02:59;;;;;;;12.35;7.97;;;;;;;17.85;71.51;100418.69;1681345;83;21442;-73
2021/05/27 05:05:27;;;;;;;12.45;7.90;;;;;;;17.94;70.60;100418.19;1664948;83;21105;-74
2021/05/27 05:07:54;;;;;;;9.48;7.60;;;;;;;18.01;69.27;100415.19;1687494;83;20978;-74
2021/05/27 05:10:23;;;;;;;13.03;9.45;;;;;;;18.09;69.02;100414.34;1685255;83;21759;-74
2021/05/27 05:12:50;;;;;;;15.40;9.33;;;;;;;18.16;68.91;100414.84;1690084;84;21114;-75
2021/05/27 05:15:34;;;;;;;21.02;11.08;;;;;;;18.23;68.72;100418.48;1697873;83;21055;-75
2021/05/27 05:18:07;;;;;;;26.13;12.23;;;;;;;18.31;68.53;100413.12;1689642;83;21169;-75
2021/05/27 05:20:38;;;;;;;19.70;11.03;;;;;;;18.37;68.08;100412.95;1669516;84;21062;-75
2021/05/27 05:23:06;;;;;;;13.68;9.60;;;;;;;18.44;67.80;100418.45;1682707;83;21795;-74
2021/05/27 05:25:35;;;;;;;19.00;10.93;;;;;;;18.50;67.41;100413.73;1669466;84;21085;-74
2021/05/27 05:28:02;;;;;;;15.43;8.93;;;;;;;18.54;67.08;100417.25;1674174;83;21067;-73
2021/05/27 05:30:29;;;;;;;15.32;9.70;;;;;;;18.59;66.45;100421.56;1684402;83;21585;-73
2021/05/27 05:32:56;;;;;;;17.35;10.35;;;;;;;18.66;65.40;100420.92;1692636;83;22104;-73
2021/05/27 05:35:23;;;;;;;19.55;10.82;;;;;;;18.71;65.21;100420.71;1698619;83;22240;-73
2021/05/27 05:37:49;;;;;;;23.10;11.80;;;;;;;18.75;64.98;100418.04;1688912;83;21070;-74
2021/05/27 05:40:18;;;;;;;23.02;12.13;;;;;;;18.81;64.90;100421.34;1707852;83;21047;-73
2021/05/27 05:42:45;;;;;;;27.60;12.90;;;;;;;18.89;64.32;100416.45;1707928;83;21087;-74
2021/05/27 05:45:15;;;;;;;23.47;12.90;;;;;;;18.96;63.72;100407.23;1678776;83;21105;-73
2021/05/27 05:47:45;;;;;;;23.87;12.23;;;;;;;18.99;63.44;100413.56;1675485;84;21777;-73
2021/05/27 05:50:12;;;;;;;23.47;10.82;;;;;;;19.06;63.67;100411.86;1665933;85;21027;-73
2021/05/27 05:52:40;;;;;;;22.17;11.48;;;;;;;19.11;63.09;100410.84;1689048;84;21034;-73
2021/05/27 05:55:08;;;;;;;23.05;9.58;;;;;;;19.15;63.07;100410.30;1693953;84;21015;-73
2021/05/27 05:57:34;;;;;;;15.55;7.42;;;;;;;19.25;62.93;100412.75;1693931;84;20991;-73
2021/05/27 06:00:00;;;;;;;11.65;7.12;;;;;;;19.33;62.30;100406.52;1689435;82;22287;-73
2021/05/27 06:02:27;;;;;;;7.42;5.42;;;;;;;19.40;61.42;100408.31;1701862;83;21087;-73
2021/05/27 06:04:53;;;;;;;7.47;5.15;;;;;;;19.48;61.79;100417.28;1690593;84;21016;-73
2021/05/27 06:07:37;;;;;;;8.90;5.60;;;;;;;19.53;61.85;100410.89;1693507;84;21091;-74
2021/05/27 06:10:05;;;;;;;8.28;6.00;;;;;;;19.60;61.91;100411.89;1693951;84;20984;-73
2021/05/27 06:12:32;;;;;;;10.23;5.60;;;;;;;19.69;61.84;100406.79;1694023;84;21614;-73
2021/05/27 06:14:58;;;;;;;8.40;5.95;;;;;;;19.78;61.86;100405.67;1702622;83;21075;-72
2021/05/27 06:17:26;;;;;;;11.08;5.80;;;;;;;19.83;61.62;100400.63;1701238;83;20952;-72
2021/05/27 06:19:53;;;;;;;9.13;5.95;;;;;;;19.90;61.71;100398.06;1714526;82;21015;-76
2021/05/27 06:22:27;;;;;;;14.58;5.45;;;;;;;19.94;61.67;100389.45;1692963;83;21098;-70
2021/05/27 06:24:55;;;;;;;8.10;5.90;;;;;;;20.00;61.98;100391.93;1693917;84;21800;-69
2021/05/27 06:27:21;;;;;;;8.65;5.37;;;;;;;20.10;62.29;100390.33;1703751;83;21067;-69
2021/05/27 06:29:50;;;;;;;10.68;6.37;;;;;;;20.19;61.94;100385.20;1722994;83;21562;-69
2021/05/27 06:32:17;;;;;;;9.70;6.00;;;;;;;20.29;61.80;100384.42;1686978;84;21003;-69
2021/05/27 06:34:44;;;;;;;6.15;5.25;;;;;;;20.37;61.61;100385.67;1701027;83;21011;-68
2021/05/27 06:37:10;;;;;;;7.75;5.97;;;;;;;20.44;61.12;100384.44;1691087;83;22435;-69
2021/05/27 06:39:37;;;;;;;6.47;4.67;;;;;;;20.48;60.89;100382.56;1684338;84;21647;-72
2021/05/27 06:42:04;;;;;;;5.83;4.97;;;;;;;20.56;60.92;100384.32;1685806;83;21047;-70
2021/05/27 06:44:31;;;;;;;5.12;4.30;;;;;;;20.64;60.25;100390.06;1694935;83;21588;-70
2021/05/27 06:46:57;;;;;;;5.35;4.28;;;;;;;20.68;60.32;100382.81;1701168;84;21063;-70
2021/05/27 06:49:24;;;;;;;5.85;4.58;;;;;;;20.72;60.32;100384.09;1687141;83;21787;-70
2021/05/27 06:51:50;;;;;;;8.30;4.70;;;;;;;20.78;60.49;100386.55;1681946;84;21063;-69
2021/05/27 06:54:17;;;;;;;5.80;4.58;;;;;;;20.87;60.43;100388.11;1671130;84;21015;-69
2021/05/27 06:56:45;;;;;;;8.58;4.35;;;;;;;20.94;60.21;100383.66;1664396;86;21466;-72
2021/05/27 06:59:11;;;;;;;8.35;4.40;;;;;;;20.99;60.02;100381.22;1716545;82;21537;-71
2021/05/27 07:01:38;;;;;;;7.85;4.20;;;;;;;21.02;60.29;100379.48;1701422;83;22297;-72
2021/05/27 07:04:04;;;;;;;7.12;4.75;;;;;;;21.09;60.46;100380.91;1701226;83;20986;-70
2021/05/27 07:06:31;;;;;;;5.80;3.72;;;;;;;21.20;60.22;100379.58;1718727;82;21051;-70
2021/05/27 07:08:57;;;;;;;6.15;4.37;;;;;;;21.26;59.40;100375.66;1705019;82;21142;-70
2021/05/27 07:11:25;;;;;;;8.05;4.33;;;;;;;21.29;59.55;100376.61;1688435;83;21007;-70
2021/05/27 07:13:52;;;;;;;8.00;3.77;;;;;;;21.36;59.79;100374.00;1673090;85;22534;-70
2021/05/27 07:16:19;;;;;;;5.97;4.22;;;;;;;21.45;59.03;100374.70;1696441;83;21039;-71
2021/05/27 07:18:45;;;;;;;5.35;4.08;;;;;;;21.51;59.66;100370.72;1701302;83;20991;-71
2021/05/27 07:21:12;;;;;;;6.67;4.10;;;;;;;21.61;60.08;100363.67;1719264;82;21082;-69
2021/05/27 07:23:38;;;;;;;5.75;4.00;;;;;;;21.70;60.35;100367.37;1730662;83;21040;-75
2021/05/27 07:26:05;;;;;;;6.90;4.50;;;;;;;21.80;59.58;100367.55;1717673;83;21677;-73
2021/05/27 07:28:32;;;;;;;7.70;4.47;;;;;;;21.87;59.36;100364.41;1688329;84;21054;-72
2021/05/27 07:31:00;;;;;;;4.62;4.20;;;;;;;21.96;60.04;100360.55;1688644;82;21059;-73
2021/05/27 07:33:27;;;;;;;6.70;3.70;;;;;;;22.05;59.06;100362.05;1657757;84;21124;-72
2021/05/27 07:35:53;;;;;;;4.80;3.25;;;;;;;22.12;58.42;100369.70;1686505;82;21102;-74
2021/05/27 07:38:20;;;;;;;7.62;2.98;;;;;;;22.16;58.50;100359.36;1680421;84;21792;-73
2021/05/27 07:40:46;;;;;;;8.70;3.17;;;;;;;22.23;57.77;100351.66;1678776;85;21007;-73
2021/05/27 07:43:13;;;;;;;3.50;2.90;;;;;;;22.27;57.31;100356.11;1709709;81;21505;-73
2021/05/27 07:45:40;;;;;;;4.85;2.90;;;;;;;22.29;57.29;100347.31;1703629;81;21074;-74
2021/05/27 07:48:07;;;;;;;4.85;2.50;;;;;;;22.35;57.18;100348.40;1695975;83;21058;-73
2021/05/27 07:50:34;;;;;;;5.55;2.75;;;;;;;22.38;57.46;100351.51;1720028;82;22532;-74
2021/05/27 07:53:00;;;;;;;5.55;2.67;;;;;;;22.46;56.65;100347.83;1722873;83;21560;-74
2021/05/27 07:55:27;;;;;;;6.08;3.20;;;;;;;22.54;57.79;100349.02;1722765;83;20944;-73
2021/05/27 07:57:54;;;;;;;3.52;2.80;;;;;;;22.69;57.60;100348.36;1715307;83;21012;-74
2021/05/27 08:00:21;;;;;;;6.70;2.83;;;;;;;22.81;56.73;100354.82;1722794;83;21075;-76
2021/05/27 08:02:47;;;;;;;3.98;2.52;;;;;;;22.87;56.32;100346.98;1691732;83;22365;-75
2021/05/27 08:05:14;;;;;;;6.00;3.00;;;;;;;22.91;55.85;100351.77;1722876;83;21004;-74
2021/05/27 08:07:42;;;;;;;3.30;2.70;;;;;;;22.91;55.32;100349.59;1702988;82;21030;-74
2021/05/27 08:10:10;;;;;;;8.78;2.83;;;;;;;22.95;56.19;100346.80;1722727;83;21091;-74
2021/05/27 08:12:36;;;;;;;4.72;2.40;;;;;;;23.04;55.36;100349.63;1722788;83;20992;-74
2021/05/27 08:15:06;;;;;;;6.12;3.12;;;;;;;23.09;54.59;100343.95;1718216;82;21510;-75
2021/05/27 08:17:33;;;;;;;5.00;2.70;;;;;;;23.12;54.55;100335.97;1718215;83;21004;-75
2021/05/27 08:20:01;;;;;;;5.90;2.80;;;;;;;23.20;55.51;100341.17;1692943;83;21094;-75
2021/05/27 08:22:27;;;;;;;8.75;2.80;;;;;;;23.36;55.13;100339.44;1713592;83;21058;-75
2021/05/27 08:24:54;;;;;;;4.35;2.50;;;;;;;23.47;54.40;100331.25;1693887;84;20991;-75
2021/05/27 08:27:21;;;;;;;5.75;2.47;;;;;;;23.61;54.69;100329.41;1693745;84;21755;-75
2021/05/27 08:29:48;;;;;;;4.03;2.50;;;;;;;23.72;53.42;100330.12;1693735;84;21743;-75
2021/05/27 08:32:14;;;;;;;5.53;2.45;;;;;;;23.82;52.83;100323.78;1686760;83;21610;-74
2021/05/27 08:34:40;;;;;;;4.20;2.10;;;;;;;23.93;52.36;100321.81;1734150;82;21039;-74
2021/05/27 08:37:07;;;;;;;3.47;2.12;;;;;;;24.04;50.57;100317.64;1708175;82;21405;-74
2021/05/27 08:39:33;;;;;;;3.75;2.30;;;;;;;24.09;50.32;100319.69;1717562;83;21828;-75
2021/05/27 08:42:00;;;;;;;4.20;2.10;;;;;;;24.12;50.06;100317.91;1717259;83;21600;-75
2021/05/27 08:44:27;;;;;;;3.83;2.27;;;;;;;24.17;49.67;100314.90;1736910;82;21599;-75
2021/05/27 08:46:54;;;;;;;5.10;2.22;;;;;;;24.26;49.18;100322.25;1747133;81;20990;-75
2021/05/27 08:49:20;;;;;;;5.10;2.20;;;;;;;24.33;48.59;100315.52;1747215;82;21039;-74
2021/05/27 08:51:47;;;;;;;5.55;2.12;;;;;;;24.36;48.50;100313.21;1747023;81;21734;-74
2021/05/27 08:54:15;;;;;;;4.20;2.40;;;;;;;24.39;48.03;100314.65;1699710;82;21477;-74
2021/05/27 08:56:41;;;;;;;5.75;2.40;;;;;;;24.40;48.27;100318.48;1688250;84;21579;-74
2021/05/27 08:59:07;;;;;;;10.08;2.77;;;;;;;24.46;47.25;100319.52;1707617;82;21431;-74
2021/05/27 09:01:54;;;;;;;8.85;2.90;;;;;;;24.54;47.60;100316.05;1741694;82;21006;-74
2021/05/27 09:04:22;;;;;;;4.40;2.60;;;;;;;24.69;48.08;100316.28;1701098;83;21816;-75
2021/05/27 09:06:50;;;;;;;4.03;2.47;;;;;;;24.86;48.04;100310.69;1737819;81;21102;-75
2021/05/27 09:09:16;;;;;;;6.20;2.72;;;;;;;24.98;47.29;100316.22;1744249;82;21010;-77
2021/05/27 09:11:46;;;;;;;3.72;2.90;;;;;;;25.08;47.63;100318.78;1714435;83;21476;-75
2021/05/27 09:14:15;;;;;;;4.50;2.80;;;;;;;25.14;46.84;100311.69;1726969;82;21026;-76
2021/05/27 09:16:59;;;;;;;4.72;2.52;;;;;;;25.15;46.05;100313.34;1686292;85;21748;-75
2021/05/27 09:19:26;;;;;;;6.35;3.00;;;;;;;25.18;46.69;100318.30;1686028;84;21006;-76
2021/05/27 09:21:54;;;;;;;6.00;2.67;;;;;;;25.10;46.77;100311.84;1686268;84;21062;-76
2021/05/27 09:24:46;;;;;;;4.72;2.80;;;;;;;25.01;47.14;100320.69;1686393;85;21081;-76
2021/05/27 09:27:14;;;;;;;7.03;3.00;;;;;;;25.00;47.00;100316.34;1697421;83;21026;-74
2021/05/27 09:29:46;;;;;;;4.87;3.00;;;;;;;25.00;47.45;100309.58;1735168;82;21784;-75
2021/05/27 09:32:14;;;;;;;5.12;2.92;;;;;;;25.10;47.75;100308.61;1697275;83;21504;-75
2021/05/27 09:34:47;;;;;;;3.95;2.92;;;;;;;25.22;47.34;100306.55;1675317;85;21046;-75
2021/05/27 09:37:29;;;;;;;5.22;2.67;;;;;;;25.36;47.52;100308.09;1673114;85;21026;-75
2021/05/27 09:39:57;;;;;;;3.85;2.85;;;;;;;25.56;47.87;100304.69;1673106;85;21006;-75
2021/05/27 09:42:24;;;;;;;4.55;2.50;;;;;;;25.76;46.87;100303.19;1673127;85;21831;-76
2021/05/27 09:44:52;;;;;;;4.45;2.47;;;;;;;25.78;45.15;100302.98;1690544;84;21070;-76
2021/05/27 09:47:32;;;;;;;6.33;2.92;;;;;;;25.74;46.07;100297.70;1677084;84;21612;-75
2021/05/27 09:50:04;;;;;;;4.05;3.30;;;;;;;25.76;46.18;100295.59;1673083;85;21065;-75
2021/05/27 09:52:46;;;;;;;6.07;3.70;;;;;;;25.79;48.00;100291.94;1679455;85;21529;-75
2021/05/27 09:55:17;;;;;;;5.83;3.98;;;;;;;25.76;48.08;100294.25;1688027;83;21810;-75
2021/05/27 09:57:46;;;;;;;8.70;3.80;;;;;;;25.73;48.80;100294.17;1708730;83;21015;-75
2021/05/27 10:00:27;;;;;;;10.20;6.25;;;;;;;25.66;49.68;100286.08;1730577;83;21003;-75
2021/05/27 10:02:53;;;;;;;5.75;4.00;;;;;;;25.64;49.91;100288.19;1689935;83;20968;-75
2021/05/27 10:05:21;;;;;;;8.50;3.00;;;;;;;25.59;50.10;100289.92;1690781;84;21063;-75
2021/05/27 10:07:51;;;;;;;6.03;3.60;;;;;;;25.53;50.34;100296.20;1673106;84;21790;-75
2021/05/27 10:10:21;;;;;;;13.75;4.67;;;;;;;25.48;50.53;100294.67;1673026;84;21600;-75
2021/05/27 10:12:51;;;;;;;10.08;4.33;;;;;;;25.43;51.05;100292.65;1673090;84;20971;-75
2021/05/27 10:15:20;;;;;;;11.20;6.08;;;;;;;25.42;51.20;100286.94;1673074;85;20990;-75
2021/05/27 10:17:46;;;;;;;5.72;4.20;;;;;;;25.50;51.44;100290.72;1673822;84;21027;-76
2021/05/27 10:20:19;;;;;;;9.28;5.20;;;;;;;25.71;51.72;100284.11;1703157;83;21812;-75
2021/05/27 10:22:48;;;;;;;5.95;2.95;;;;;;;25.95;51.48;100282.39;1730357;82;20883;-75
2021/05/27 10:25:17;;;;;;;6.10;3.12;;;;;;;26.22;50.79;100285.11;1715012;83;20963;-75
2021/05/27 10:27:46;;;;;;;8.60;3.83;;;;;;;26.47;49.71;100278.81;1730932;82;20983;-75
2021/05/27 10:30:13;;;;;;;4.92;2.72;;;;;;;26.72;49.92;100278.13;1691986;83;21051;-75
2021/05/27 10:32:46;;;;;;;8.45;2.83;;;;;;;26.92;48.22;100277.02;1672928;85;21757;-76
2021/05/27 10:35:13;;;;;;;4.55;2.85;;;;;;;27.10;47.77;100277.81;1684139;84;20959;-75
2021/05/27 10:37:45;;;;;;;5.05;2.90;;;;;;;27.26;48.09;100268.72;1701451;83;21051;-74
2021/05/27 10:40:21;;;;;;;3.72;2.80;;;;;;;27.47;47.35;100261.89;1701918;83;21098;-75
2021/05/27 10:43:05;;;;;;;8.00;3.08;;;;;;;27.63;47.03;100255.77;1708294;83;21148;-75
2021/05/27 10:45:32;;;;;;;6.22;2.98;;;;;;;27.76;44.73;100249.29;1713738;82;22599;-75
2021/05/27 10:48:17;;;;;;;4.50;2.80;;;;;;;27.66;46.63;100252.60;1713768;83;21123;-75
2021/05/27 10:51:21;;;;;;;7.92;3.10;;;;;;;27.69;44.92;100256.19;1708633;82;21102;-75
2021/05/27 10:53:49;;;;;;;4.08;2.72;;;;;;;27.38;44.30;100249.20;1673736;83;21498;-75
2021/05/27 10:56:20;;;;;;;6.22;2.75;;;;;;;26.97;45.17;100260.38;1673331;85;21011;-75
2021/05/27 10:58:53;;;;;;;6.47;2.80;;;;;;;26.73;46.48;100257.28;1675445;83;21875;-75
2021/05/27 11:01:35;;;;;;;5.28;2.50;;;;;;;26.51;46.73;100254.27;1701685;84;21592;-75
2021/05/27 11:04:25;;;;;;;4.20;2.43;;;;;;;26.17;47.33;100254.37;1701679;84;20979;-75
2021/05/27 11:07:20;;;;;;;5.00;3.05;;;;;;;26.17;47.33;100254.37;1701377;84;21775;-75
2021/05/27 11:09:50;;;;;;;3.52;2.40;;;;;;;26.09;47.84;100250.08;1684224;84;21509;-75
2021/05/27 11:12:30;;;;;;;3.08;2.50;;;;;;;25.98;47.11;100246.78;1673097;85;22338;-76
2021/05/27 11:15:14;;;;;;;4.15;2.50;;;;;;;25.74;47.96;100245.78;1703556;83;21006;-75
2021/05/27 11:17:40;;;;;;;5.10;2.27;;;;;;;25.55;48.44;100248.95;1727301;82;21071;-76
2021/05/27 11:20:19;;;;;;;5.62;2.75;;;;;;;25.39;48.62;100250.36;1730548;83;21349;-76
2021/05/27 11:25:19;;;;;;;8.65;2.42;;;;;;;25.13;49.51;100254.63;1730710;83;21837;-74
2021/05/27 11:27:49;;;;;;;8.18;2.30;;;;;;;25.01;49.68;100249.08;1671640;85;21027;-74
2021/05/27 11:30:32;;;;;;;6.22;2.50;;;;;;;24.82;50.14;100255.45;1683000;83;20971;-75
2021/05/27 11:33:04;;;;;;;4.35;2.80;;;;;;;24.61;51.01;100257.11;1701047;84;21078;-75
2021/05/27 11:35:42;;;;;;;3.92;2.33;;;;;;;24.37;52.19;100271.67;1701447;84;21102;-74
2021/05/27 11:38:15;;;;;;;7.37;2.47;;;;;;;24.22;52.70;100280.02;1694062;83;21818;-74
2021/05/27 11:40:59;;;;;;;4.78;2.70;;;;;;;24.03;53.83;100284.10;1701739;83;21560;-73
2021/05/27 11:43:37;;;;;;;3.52;2.45;;;;;;;23.69;56.28;100290.09;1690477;83;21007;-74
2021/05/27 11:46:08;;;;;;;14.20;3.75;;;;;;;23.18;59.14;100296.61;1730624;83;21517;-73
2021/05/27 11:51:11;;;;;;;8.50;3.95;;;;;;;22.31;62.82;100269.95;1701737;83;21780;-74